Time;durP1;ratioP1;P1;durP2;ratioP2;P2;SDS_P1;SDS_P2;PMS_P1;PMS_P2;Temp;Humidity;BMP_temperature;BMP_pressure;BME280_temperature;BME280_humidity;BME280_pressure;Samples;Min_cycle;Max_cycle;Signal;HPM_P1;HPM_P2
2022/02/24 00:00:19;;;;;;;1999.90;999.90;;;;;;;2.89;84.56;163168.34;4948978;28;20082;-68
2022/02/24 00:02:46;;;;;;;1999.90;999.90;;;;;;;2.95;83.93;163183.44;4947033;29;20352;-68
2022/02/24 00:05:14;;;;;;;1999.90;999.90;;;;;;;3.05;83.74;163210.84;4945257;28;20051;-68
2022/02/24 00:07:40;;;;;;;1999.90;999.90;;;;;;;2.82;84.59;163149.16;4943612;28;20085;-68
2022/02/24 00:10:10;;;;;;;1999.90;999.90;;;;;;;2.78;85.59;163139.59;4948972;28;20051;-68
2022/02/24 00:12:38;;;;;;;1999.90;999.90;;;;;;;2.91;85.13;163172.47;4948305;29;20440;-68
2022/02/24 00:15:07;;;;;;;1999.90;999.90;;;;;;;2.90;85.67;163169.69;4943945;28;20083;-67
2022/02/24 00:17:34;;;;;;;1999.90;999.90;;;;;;;2.99;85.01;163195.75;4943597;28;20105;-68
2022/02/24 00:20:01;;;;;;;1999.90;999.90;;;;;;;2.80;85.87;163145.06;4946095;28;20105;-68
2022/02/24 00:22:28;;;;;;;1999.90;999.90;;;;;;;2.51;86.82;163065.59;4949256;29;20397;-67
2022/02/24 00:24:54;;;;;;;1999.90;999.90;;;;;;;2.73;86.12;163125.88;4943852;28;20055;-67
2022/02/24 00:27:20;;;;;;;1999.90;999.90;;;;;;;2.76;85.45;163134.09;4943280;28;20106;-67
2022/02/24 00:29:47;;;;;;;1999.90;999.90;;;;;;;2.77;84.97;163136.84;4945646;28;20055;-67
2022/02/24 00:32:13;;;;;;;1999.90;999.90;;;;;;;3.07;84.51;163216.28;4949345;29;20082;-68
2022/02/24 00:34:40;;;;;;;1999.90;999.90;;;;;;;3.24;83.77;163260.16;4944507;28;20090;-68
2022/02/24 00:37:08;;;;;;;1999.90;999.90;;;;;;;3.01;84.53;163199.88;4944157;28;20039;-68
2022/02/24 00:39:35;;;;;;;1999.90;999.90;;;;;;;2.90;85.23;163169.69;4944936;28;20108;-68
2022/02/24 00:42:01;;;;;;;1999.90;999.90;;;;;;;3.03;84.63;163205.31;4949823;28;20214;-68
2022/02/24 00:44:28;;;;;;;1999.90;999.90;;;;;;;3.14;84.96;163235.50;4944339;28;20385;-68
2022/02/24 00:46:54;;;;;;;1999.90;999.90;;;;;;;3.22;84.58;163256.03;4944282;28;20069;-68
2022/02/24 00:49:22;;;;;;;1999.90;999.90;;;;;;;3.24;84.75;163261.50;4944398;28;20059;-68
2022/02/24 00:51:49;;;;;;;1999.90;999.90;;;;;;;3.30;84.27;163277.94;4949857;28;20055;-68
2022/02/24 00:54:16;;;;;;;1999.90;999.90;;;;;;;3.57;83.72;163347.84;4945425;29;20047;-68
2022/02/24 00:56:43;;;;;;;1999.90;999.90;;;;;;;3.54;83.57;163340.97;4945975;28;20055;-68
2022/02/24 00:59:10;;;;;;;1999.90;999.90;;;;;;;3.43;83.72;163312.22;4944002;28;20097;-68
2022/02/24 01:01:37;;;;;;;1999.90;999.90;;;;;;;3.47;83.93;163321.84;4949071;28;20448;-68
2022/02/24 01:04:03;;;;;;;1999.90;999.90;;;;;;;3.50;83.55;163331.41;4945230;29;20110;-68
2022/02/24 01:06:30;;;;;;;1999.90;999.90;;;;;;;3.48;83.47;163325.94;4942818;28;20442;-68
2022/02/24 01:08:56;;;;;;;1999.90;999.90;;;;;;;3.76;82.32;163399.94;4944960;28;20047;-68
2022/02/24 01:11:23;;;;;;;1999.90;999.90;;;;;;;3.62;82.61;163361.59;4948589;28;21102;-68
2022/02/24 01:13:50;;;;;;;1999.90;999.90;;;;;;;3.49;83.17;163328.66;4946175;28;20082;-68
2022/02/24 01:16:16;;;;;;;1999.90;999.90;;;;;;;3.70;82.46;163383.50;4945952;28;20453;-68
2022/02/24 01:18:43;;;;;;;1999.90;999.90;;;;;;;3.82;81.97;163416.38;4943610;28;20047;-68
2022/02/24 01:21:09;;;;;;;1999.90;999.90;;;;;;;3.49;82.69;163328.66;4949613;28;20086;-68
2022/02/24 01:23:36;;;;;;;1999.90;999.90;;;;;;;3.32;83.35;163283.44;4946957;29;20055;-68
2022/02/24 01:26:02;;;;;;;1999.90;999.90;;;;;;;3.39;82.94;163301.25;4944219;28;20082;-68
2022/02/24 01:28:29;;;;;;;1999.90;999.90;;;;;;;3.27;83.43;163268.38;4942899;28;20055;-68
2022/02/24 01:30:55;;;;;;;1999.90;999.90;;;;;;;3.50;82.75;163330.06;4948837;28;20087;-68
2022/02/24 01:33:23;;;;;;;1999.90;999.90;;;;;;;3.33;83.17;163284.78;4944853;28;20043;-68
2022/02/24 01:35:50;;;;;;;1999.90;999.90;;;;;;;3.22;83.10;163254.69;4943139;28;20090;-68
2022/02/24 01:38:16;;;;;;;1999.90;999.90;;;;;;;3.27;83.61;163269.72;4942285;28;20520;-68
2022/02/24 01:40:43;;;;;;;1999.90;999.90;;;;;;;3.41;82.86;163305.34;4946663;28;20441;-68
2022/02/24 01:43:09;;;;;;;1999.90;999.90;;;;;;;3.39;82.85;163299.88;4947729;28;20094;-68
2022/02/24 01:45:36;;;;;;;1999.90;999.90;;;;;;;3.34;83.04;163287.56;4943541;28;20101;-68
2022/02/24 01:48:03;;;;;;;1999.90;999.90;;;;;;;3.22;83.43;163254.69;4943502;28;20507;-68
2022/02/24 01:50:29;;;;;;;1999.90;999.90;;;;;;;3.34;82.82;163287.56;4946382;28;20055;-68
2022/02/24 01:52:56;;;;;;;1999.90;999.90;;;;;;;3.27;83.00;163268.38;4947610;28;20082;-68
2022/02/24 01:55:22;;;;;;;1999.90;999.90;;;;;;;2.98;84.00;163191.66;4958446;28;20051;-68
2022/02/24 01:57:49;;;;;;;1999.90;999.90;;;;;;;2.96;84.08;163186.13;4941029;28;20055;-68
2022/02/24 02:00:16;;;;;;;1999.90;999.90;;;;;;;2.69;84.22;163113.53;4945432;28;20051;-68
2022/02/24 02:02:43;;;;;;;1999.90;999.90;;;;;;;2.99;83.87;163194.34;4947816;29;20052;-67
2022/02/24 02:05:10;;;;;;;1999.90;999.90;;;;;;;3.05;83.27;163210.84;4943641;28;20059;-68
2022/02/24 02:07:36;;;;;;;1999.90;999.90;;;;;;;2.89;83.69;163168.34;4942526;28;20062;-68
2022/02/24 02:10:03;;;;;;;1999.90;999.90;;;;;;;2.66;84.95;163106.69;4944975;28;20052;-68
2022/02/24 02:12:47;;;;;;;1999.90;999.90;;;;;;;2.57;85.64;163082.03;4948867;28;20141;-68
2022/02/24 02:15:14;;;;;;;1999.90;999.90;;;;;;;2.70;85.03;163116.28;4946796;29;20098;-68
2022/02/24 02:17:40;;;;;;;1999.90;999.90;;;;;;;2.78;84.88;163138.19;4942643;28;20051;-68
2022/02/24 02:20:07;;;;;;;1999.90;999.90;;;;;;;2.58;85.44;163084.78;4942980;28;20138;-68
2022/02/24 02:22:35;;;;;;;1999.90;999.90;;;;;;;2.45;85.70;163050.53;4947438;28;20536;-68
2022/02/24 02:25:04;;;;;;;1999.90;999.90;;;;;;;2.66;85.16;163105.34;4945511;29;20078;-68
2022/02/24 02:27:31;;;;;;;1999.90;999.90;;;;;;;2.51;85.78;163065.59;4942621;28;20468;-68
2022/02/24 02:29:57;;;;;;;1999.90;999.90;;;;;;;2.27;86.36;163002.59;4942251;28;20078;-68
2022/02/24 02:32:25;;;;;;;1999.90;999.90;;;;;;;2.08;87.14;162951.94;4946541;28;20121;-68
2022/02/24 02:34:52;;;;;;;1999.90;999.90;;;;;;;2.10;86.98;162958.78;4947984;29;20078;-68
2022/02/24 02:37:18;;;;;;;1999.90;999.90;;;;;;;2.01;87.16;162934.16;4945059;28;20051;-68
2022/02/24 02:39:45;;;;;;;1999.90;999.90;;;;;;;2.20;86.92;162983.41;4944790;28;20052;-68
2022/02/24 02:42:12;;;;;;;1999.90;999.90;;;;;;;2.15;86.86;162971.09;4949499;28;20395;-67
2022/02/24 02:44:41;;;;;;;1999.90;999.90;;;;;;;2.18;87.12;162979.31;4950899;28;20051;-68
2022/02/24 02:47:08;;;;;;;1999.90;999.90;;;;;;;1.84;88.74;162888.94;4944564;28;20055;-68
2022/02/24 02:49:34;;;;;;;1999.90;999.90;;;;;;;1.78;88.94;162872.53;4945586;28;20082;-68
2022/02/24 02:52:01;;;;;;;1999.90;999.90;;;;;;;2.17;88.13;162975.22;4948128;28;20079;-68
2022/02/24 02:54:27;;;;;;;1999.90;999.90;;;;;;;2.38;87.10;163032.75;4952436;29;20122;-68
2022/02/24 02:56:54;;;;;;;1999.90;999.90;;;;;;;2.57;86.82;163083.38;4946139;28;20056;-68
2022/02/24 02:59:20;;;;;;;1999.90;999.90;;;;;;;2.68;86.38;163110.78;4950052;28;20070;-68
2022/02/24 03:01:52;;;;;;;1999.90;999.90;;;;;;;2.60;86.38;163090.25;4949103;28;20067;-68
2022/02/24 03:04:19;;;;;;;1999.90;999.90;;;;;;;2.56;86.31;163080.69;4950270;28;20349;-68
2022/02/24 03:06:47;;;;;;;1999.90;999.90;;;;;;;2.60;86.57;163090.25;4946801;28;20063;-68
2022/02/24 03:09:13;;;;;;;1999.90;999.90;;;;;;;2.57;86.44;163082.03;4945397;28;20039;-68
2022/02/24 03:11:40;;;;;;;1999.90;999.90;;;;;;;2.66;85.67;163105.34;4947026;28;20128;-68
2022/02/24 03:14:06;;;;;;;1999.90;999.90;;;;;;;2.61;86.26;163093.00;4951922;28;20086;-68
2022/02/24 03:16:33;;;;;;;1999.90;999.90;;;;;;;2.69;86.35;163114.91;4947556;29;20051;-68
2022/02/24 03:18:59;;;;;;;1999.90;999.90;;;;;;;2.89;85.62;163168.34;4946285;28;20125;-68
2022/02/24 03:21:26;;;;;;;1999.90;999.90;;;;;;;3.03;85.13;163205.31;4946524;28;20055;-68
2022/02/24 03:23:52;;;;;;;1999.90;999.90;;;;;;;2.90;84.92;163171.06;4949444;28;20437;-68
2022/02/24 03:26:19;;;;;;;1999.90;999.90;;;;;;;2.62;85.94;163095.72;4947881;28;20572;-68
2022/02/24 03:28:45;;;;;;;1999.90;999.90;;;;;;;2.71;86.54;163119.00;4945751;28;20052;-68
2022/02/24 03:31:12;;;;;;;1999.90;999.90;;;;;;;2.68;86.08;163110.78;4946084;28;20509;-68
2022/02/24 03:33:38;;;;;;;1999.90;999.90;;;;;;;2.71;85.87;163119.00;4950598;28;20067;-68
2022/02/24 03:36:06;;;;;;;1999.90;999.90;;;;;;;2.60;86.57;163091.59;4947933;29;20079;-68
2022/02/24 03:38:32;;;;;;;1999.90;999.90;;;;;;;2.76;85.96;163134.09;4945209;28;20070;-68
2022/02/24 03:40:59;;;;;;;1999.90;999.90;;;;;;;2.51;86.58;163065.59;4945768;28;20380;-68
2022/02/24 03:43:25;;;;;;;1999.90;999.90;;;;;;;2.69;86.14;163114.91;4949291;28;20085;-68
2022/02/24 03:45:52;;;;;;;1999.90;999.90;;;;;;;2.72;86.04;163123.09;4947187;28;20114;-68
2022/02/24 03:48:18;;;;;;;1999.90;999.90;;;;;;;2.86;85.29;163158.72;4946066;28;20109;-69
2022/02/24 03:50:45;;;;;;;1999.90;999.90;;;;;;;2.46;86.59;163053.28;4945297;28;20083;-68
2022/02/24 03:53:11;;;;;;;1999.90;999.90;;;;;;;2.52;86.55;163069.72;4948401;28;20102;-68
2022/02/24 03:55:38;;;;;;;1999.90;999.90;;;;;;;2.60;86.58;163090.25;4948990;29;20059;-68
2022/02/24 03:58:04;;;;;;;1999.90;999.90;;;;;;;2.32;87.49;163014.91;4944436;28;20443;-66
2022/02/24 04:00:31;;;;;;;1999.90;999.90;;;;;;;2.50;87.32;163062.84;4944266;28;20083;-66
2022/02/24 04:02:57;;;;;;;1999.90;999.90;;;;;;;2.35;87.34;163024.50;4950324;28;20197;-66
2022/02/24 04:05:24;;;;;;;1999.90;999.90;;;;;;;2.50;87.18;163064.25;4948629;28;20043;-67
2022/02/24 04:07:52;;;;;;;1999.90;999.90;;;;;;;2.50;87.01;163064.25;4943163;28;20055;-67
2022/02/24 04:10:19;;;;;;;1999.90;999.90;;;;;;;2.43;87.19;163045.06;4944187;28;20071;-66
2022/02/24 04:12:45;;;;;;;1999.90;999.90;;;;;;;2.20;88.53;162983.41;4945528;28;20051;-67
2022/02/24 04:15:11;;;;;;;1999.90;999.90;;;;;;;2.35;88.21;163023.13;4947001;28;20055;-67
2022/02/24 04:17:38;;;;;;;1999.90;999.90;;;;;;;2.31;87.67;163012.16;4943748;28;20059;-67
2022/02/24 04:20:06;;;;;;;1999.90;999.90;;;;;;;2.39;87.63;163034.09;4944365;28;20051;-67
2022/02/24 04:22:33;;;;;;;1999.90;999.90;;;;;;;2.33;87.38;163019.03;4946630;28;20464;-67
2022/02/24 04:24:59;;;;;;;1999.90;999.90;;;;;;;2.26;87.66;163001.25;4937338;29;20150;-67
2022/02/24 04:27:26;;;;;;;1999.90;999.90;;;;;;;2.18;88.48;162979.31;4943810;28;20134;-67
2022/02/24 04:29:52;;;;;;;1999.90;999.90;;;;;;;2.58;87.27;163084.78;4944392;28;20043;-67
2022/02/24 04:32:19;;;;;;;1999.90;999.90;;;;;;;2.37;87.24;163030.00;4947036;28;20058;-67
2022/02/24 04:34:45;;;;;;;1999.90;999.90;;;;;;;2.50;86.72;163062.84;4949896;29;20528;-67
2022/02/24 04:37:12;;;;;;;1999.90;999.90;;;;;;;2.25;87.36;162997.16;4944984;28;20058;-67
2022/02/24 04:39:39;;;;;;;1999.90;999.90;;;;;;;2.39;87.36;163034.09;4942916;28;20054;-67
2022/02/24 04:42:05;;;;;;;1999.90;999.90;;;;;;;2.36;87.16;163027.25;4945133;28;20490;-68
2022/02/24 04:44:32;;;;;;;1999.90;999.90;;;;;;;1.94;88.31;162914.97;4947317;28;20076;-68
2022/02/24 04:46:58;;;;;;;1999.90;999.90;;;;;;;2.13;88.16;162965.66;4942478;28;20059;-68
2022/02/24 04:49:25;;;;;;;1999.90;999.90;;;;;;;2.27;87.61;163002.59;4942860;28;20386;-68
2022/02/24 04:51:52;;;;;;;1999.90;999.90;;;;;;;2.29;87.52;163008.06;4943417;28;20051;-68
2022/02/24 04:54:18;;;;;;;1999.90;999.90;;;;;;;2.10;88.15;162958.78;4947948;29;20062;-68
2022/02/24 04:56:44;;;;;;;1999.90;999.90;;;;;;;1.83;89.28;162886.25;4941978;28;20445;-68
2022/02/24 04:59:11;;;;;;;1999.90;999.90;;;;;;;1.92;88.95;162909.47;4942311;28;20065;-68
2022/02/24 05:01:37;;;;;;;1999.90;999.90;;;;;;;1.93;89.18;162913.56;4946583;28;20086;-68
2022/02/24 05:04:04;;;;;;;1999.90;999.90;;;;;;;2.27;88.42;163002.59;4944583;28;20480;-68
2022/02/24 05:06:30;;;;;;;1999.90;999.90;;;;;;;1.93;89.42;162912.22;4941895;28;20061;-67
2022/02/24 05:08:57;;;;;;;1999.90;999.90;;;;;;;2.01;88.11;162934.16;4943042;28;20055;-67
2022/02/24 05:11:23;;;;;;;1999.90;999.90;;;;;;;2.33;87.30;163017.69;4947774;28;20428;-67
2022/02/24 05:13:49;;;;;;;1999.90;999.90;;;;;;;2.15;87.74;162969.75;4944125;28;20154;-67
2022/02/24 05:16:16;;;;;;;1999.90;999.90;;;;;;;2.30;86.55;163010.81;4939791;28;20078;-67
2022/02/24 05:18:42;;;;;;;1999.90;999.90;;;;;;;2.52;86.16;163068.38;4943487;28;20079;-67
2022/02/24 05:21:09;;;;;;;1999.90;999.90;;;;;;;2.37;86.54;163028.66;4949770;28;20054;-67
2022/02/24 05:23:37;;;;;;;1999.90;999.90;;;;;;;2.35;86.76;163023.13;4944174;28;20368;-67
2022/02/24 05:26:03;;;;;;;1999.90;999.90;;;;;;;2.45;86.32;163051.88;4941326;28;20142;-67
2022/02/24 05:28:30;;;;;;;1999.90;999.90;;;;;;;2.30;86.26;163010.81;4942942;28;20437;-67
2022/02/24 05:30:59;;;;;;;1999.90;999.90;;;;;;;2.52;85.76;163069.72;4947131;28;20055;-67
2022/02/24 05:33:27;;;;;;;1999.90;999.90;;;;;;;2.43;86.08;163046.41;4943564;28;20404;-67
2022/02/24 05:35:54;;;;;;;1999.90;999.90;;;;;;;2.21;86.67;162986.19;4939759;28;20501;-67
2022/02/24 05:38:21;;;;;;;1999.90;999.90;;;;;;;2.21;86.81;162986.19;4944403;28;20150;-67
2022/02/24 05:40:47;;;;;;;1999.90;999.90;;;;;;;2.14;87.48;162968.34;4947318;28;20074;-67
2022/02/24 05:43:14;;;;;;;1999.90;999.90;;;;;;;2.41;86.33;163040.97;4940004;28;20353;-67
2022/02/24 05:45:43;;;;;;;1999.90;999.90;;;;;;;2.22;86.93;162990.28;4941828;28;20118;-67
2022/02/24 05:48:10;;;;;;;1999.90;999.90;;;;;;;2.18;87.06;162979.31;4944219;28;20048;-67
2022/02/24 05:50:37;;;;;;;1999.90;999.90;;;;;;;2.16;87.08;162973.88;4947727;29;20055;-67
2022/02/24 05:53:03;;;;;;;1999.90;999.90;;;;;;;1.99;88.22;162928.66;4942694;28;20056;-67
2022/02/24 05:55:31;;;;;;;1999.90;999.90;;;;;;;2.26;87.14;162999.84;4941783;28;20149;-67
2022/02/24 05:57:58;;;;;;;1999.90;999.90;;;;;;;2.28;86.62;163006.72;4945913;28;20047;-67
2022/02/24 06:00:25;;;;;;;1999.90;999.90;;;;;;;2.05;87.49;162945.06;4948044;29;20424;-67
2022/02/24 06:02:51;;;;;;;1999.90;999.90;;;;;;;1.86;88.59;162893.06;4942008;28;20102;-67
2022/02/24 06:05:18;;;;;;;1999.90;999.90;;;;;;;1.94;88.57;162914.97;4940973;28;20118;-67
2022/02/24 06:07:45;;;;;;;1999.90;999.90;;;;;;;2.19;87.64;162980.66;4945111;28;20686;-67
2022/02/24 06:10:12;;;;;;;1999.90;999.90;;;;;;;2.37;86.63;163030.00;4953065;28;20386;-67
2022/02/24 06:12:39;;;;;;;1999.90;999.90;;;;;;;2.36;86.31;163027.25;4948237;28;20503;-68
2022/02/24 06:15:07;;;;;;;1999.90;999.90;;;;;;;1.84;88.54;162887.59;4945959;28;20109;-67
2022/02/24 06:17:36;;;;;;;1999.90;999.90;;;;;;;1.92;88.25;162909.47;4946347;28;20058;-67
2022/02/24 06:20:04;;;;;;;1999.90;999.90;;;;;;;2.04;88.04;162940.97;4949889;28;20075;-68
2022/02/24 06:22:31;;;;;;;1999.90;999.90;;;;;;;2.30;87.54;163010.81;4945951;28;20460;-67
2022/02/24 06:24:57;;;;;;;1999.90;999.90;;;;;;;2.49;86.64;163060.09;4946152;28;20082;-68
2022/02/24 06:27:24;;;;;;;1999.90;999.90;;;;;;;2.53;86.64;163071.06;4946626;28;20468;-67
2022/02/24 06:29:50;;;;;;;1999.90;999.90;;;;;;;2.53;86.46;163072.47;4951115;28;20047;-67
2022/02/24 06:32:17;;;;;;;1999.90;999.90;;;;;;;2.63;86.47;163098.47;4948214;29;20043;-67
2022/02/24 06:34:44;;;;;;;1999.90;999.90;;;;;;;2.73;86.01;163125.88;4947916;28;20079;-68
2022/02/24 06:37:11;;;;;;;1999.90;999.90;;;;;;;2.66;86.76;163106.69;4942691;28;20051;-67
2022/02/24 06:39:38;;;;;;;1999.90;999.90;;;;;;;2.43;87.52;163045.06;4950990;28;20047;-68
2022/02/24 06:42:06;;;;;;;1999.90;999.90;;;;;;;2.89;86.50;163166.94;4949526;29;20401;-68
2022/02/24 06:44:33;;;;;;;1999.90;999.90;;;;;;;2.89;86.39;163168.34;4946617;28;20539;-68
2022/02/24 06:46:59;;;;;;;1999.90;999.90;;;;;;;3.06;86.06;163212.19;4945676;28;20162;-67
2022/02/24 06:49:26;;;;;;;1999.90;999.90;;;;;;;3.22;85.68;163254.69;4950832;28;20074;-67
2022/02/24 06:51:54;;;;;;;1999.90;999.90;;;;;;;3.11;85.90;163227.28;4962969;28;20091;-67
2022/02/24 06:54:21;;;;;;;1999.90;999.90;;;;;;;3.25;85.51;163262.91;4946310;28;20074;-68
2022/02/24 06:56:48;;;;;;;1999.90;999.90;;;;;;;3.16;85.68;163240.94;4946031;28;20519;-68
2022/02/24 06:59:15;;;;;;;1999.90;999.90;;;;;;;3.15;85.95;163238.19;4950047;28;20073;-67
2022/02/24 07:01:43;;;;;;;1999.90;999.90;;;;;;;3.13;85.79;163232.72;4948181;29;20047;-68
2022/02/24 07:04:10;;;;;;;1999.90;999.90;;;;;;;3.37;85.54;163294.41;4946432;28;20062;-67
2022/02/24 07:06:37;;;;;;;1999.90;999.90;;;;;;;3.39;85.19;163299.88;4946372;28;20436;-67
2022/02/24 07:09:03;;;;;;;1999.90;999.90;;;;;;;3.43;85.07;163310.88;4948538;28;20138;-68
2022/02/24 07:11:30;;;;;;;1999.90;999.90;;;;;;;3.43;85.65;163312.22;4949995;29;20051;-67
2022/02/24 07:13:56;;;;;;;1999.90;999.90;;;;;;;3.61;85.32;163358.81;4946166;28;20075;-67
2022/02/24 07:16:29;;;;;;;1999.90;999.90;;;;;;;3.65;85.10;163371.16;4946182;28;20129;-67
2022/02/24 07:18:55;;;;;;;1999.90;999.90;;;;;;;3.92;84.06;163441.09;4948361;28;20039;-67
2022/02/24 07:21:23;;;;;;;1999.90;999.90;;;;;;;3.81;84.14;163413.66;4951976;28;20092;-67
2022/02/24 07:23:49;;;;;;;1999.90;999.90;;;;;;;3.90;83.61;163436.97;4947125;28;20051;-67
2022/02/24 07:26:16;;;;;;;1999.90;999.90;;;;;;;3.72;84.20;163387.59;4945837;28;20434;-67
2022/02/24 07:28:43;;;;;;;1999.90;999.90;;;;;;;4.08;83.50;163484.97;4947884;28;20051;-67
2022/02/24 07:31:10;;;;;;;1999.90;999.90;;;;;;;4.07;83.56;163482.22;4950435;28;20287;-68
2022/02/24 07:33:37;;;;;;;1999.90;999.90;;;;;;;4.08;83.00;163483.56;4946714;29;20393;-67
2022/02/24 07:36:04;;;;;;;1999.90;999.90;;;;;;;4.14;82.87;163500.00;4945874;28;20055;-68
2022/02/24 07:38:30;;;;;;;1999.90;999.90;;;;;;;3.81;82.97;163413.66;4945668;28;20107;-68
2022/02/24 07:40:57;;;;;;;1999.90;999.90;;;;;;;4.46;82.31;163586.41;4951062;28;20051;-68
2022/02/24 07:43:23;;;;;;;1999.90;999.90;;;;;;;4.51;81.61;163600.16;4946314;28;20098;-69
2022/02/24 07:45:50;;;;;;;1999.90;999.90;;;;;;;4.55;80.95;163611.09;4941448;28;20052;-68
2022/02/24 07:48:16;;;;;;;1999.90;999.90;;;;;;;4.14;82.20;163500.00;4941090;28;20086;-68
2022/02/24 07:50:43;;;;;;;1999.90;999.90;;;;;;;4.12;82.94;163494.53;4950516;28;21490;-68
2022/02/24 07:53:09;;;;;;;1999.90;999.90;;;;;;;4.57;81.23;163616.59;4948352;28;20075;-68
2022/02/24 07:55:36;;;;;;;1999.90;999.90;;;;;;;4.76;80.63;163665.97;4945870;28;20043;-68
2022/02/24 07:58:03;;;;;;;1999.90;999.90;;;;;;;5.08;79.95;163752.41;4946199;28;20047;-68
2022/02/24 08:00:30;;;;;;;1999.90;999.90;;;;;;;5.28;79.28;163805.97;4950786;28;20409;-68
2022/02/24 08:02:56;;;;;;;1999.90;999.90;;;;;;;4.71;80.00;163653.63;4948818;28;20055;-68
2022/02/24 08:05:23;;;;;;;1999.90;999.90;;;;;;;4.72;79.37;163655.03;4945422;28;20058;-67
2022/02/24 08:07:49;;;;;;;1999.90;999.90;;;;;;;5.00;79.48;163729.09;4945007;28;20142;-68
2022/02/24 08:10:18;;;;;;;1999.90;999.90;;;;;;;5.01;79.26;163733.19;4938583;28;20102;-67
2022/02/24 08:12:47;;;;;;;1999.90;999.90;;;;;;;5.41;77.87;163840.25;4947916;29;20086;-68
2022/02/24 08:15:16;;;;;;;1999.90;999.90;;;;;;;5.35;78.02;163822.44;4946118;28;20110;-68
2022/02/24 08:17:43;;;;;;;1999.90;999.90;;;;;;;5.50;76.98;163863.56;4945740;28;20047;-67
2022/02/24 08:20:10;;;;;;;1999.90;999.90;;;;;;;5.49;76.45;163860.81;4947490;28;20401;-68
2022/02/24 08:22:44;;;;;;;1999.90;999.90;;;;;;;5.63;75.16;163899.28;4950760;29;20094;-68
2022/02/24 08:25:13;;;;;;;1999.90;999.90;;;;;;;6.46;74.14;164119.00;4945691;28;20280;-68
2022/02/24 08:27:41;;;;;;;1999.90;999.90;;;;;;;6.42;72.92;164108.03;4943723;28;20357;-68
2022/02/24 08:30:11;;;;;;;1999.90;999.90;;;;;;;6.66;72.73;164172.59;4946384;28;20047;-68
2022/02/24 08:32:38;;;;;;;1999.90;999.90;;;;;;;6.84;71.60;164222.03;4951208;28;20345;-68
2022/02/24 08:35:06;;;;;;;1999.90;999.90;;;;;;;7.25;70.59;164329.19;4947031;29;20106;-68
2022/02/24 08:37:32;;;;;;;1999.90;999.90;;;;;;;7.70;69.29;164451.53;4945861;28;20094;-68
2022/02/24 08:39:59;;;;;;;1999.90;999.90;;;;;;;8.05;67.27;164545.03;4945750;28;20090;-68
2022/02/24 08:42:27;;;;;;;1999.90;999.90;;;;;;;8.42;65.11;164644.00;4949681;28;20342;-68
2022/02/24 08:44:55;;;;;;;1999.90;999.90;;;;;;;9.02;63.98;164803.66;4948544;29;20521;-68
2022/02/24 08:47:32;;;;;;;1999.90;999.90;;;;;;;8.65;62.91;164704.59;4944587;28;20063;-68
2022/02/24 08:49:59;;;;;;;1999.90;999.90;;;;;;;8.75;62.77;164732.13;4946164;28;20102;-68
2022/02/24 08:52:45;;;;;;;1999.90;999.90;;;;;;;9.10;63.74;164825.63;4947051;28;20517;-68
2022/02/24 08:55:12;;;;;;;1999.90;999.90;;;;;;;8.89;63.21;164769.25;4950901;28;20075;-68
2022/02/24 08:57:39;;;;;;;1999.90;999.90;;;;;;;9.07;62.92;164817.38;4945959;28;20066;-68
2022/02/24 09:00:08;;;;;;;1999.90;999.90;;;;;;;9.21;63.05;164853.16;4944825;28;20122;-68
2022/02/24 09:02:35;;;;;;;1999.90;999.90;;;;;;;9.80;60.43;165011.44;4946329;28;20054;-69
2022/02/24 09:05:02;;;;;;;1999.90;999.90;;;;;;;9.46;60.40;164921.94;4951464;28;20063;-68
2022/02/24 09:07:33;;;;;;;1999.90;999.90;;;;;;;10.11;60.12;165095.41;4946836;29;20059;-68
2022/02/24 09:10:20;;;;;;;1999.90;999.90;;;;;;;9.58;60.35;164953.59;4946502;28;20417;-68
2022/02/24 09:12:46;;;;;;;1999.90;999.90;;;;;;;10.02;60.14;165072.00;4946914;28;20059;-68
2022/02/24 09:15:13;;;;;;;1999.90;999.90;;;;;;;10.45;57.92;165184.94;4948576;28;20087;-68
2022/02/24 09:17:40;;;;;;;1999.90;999.90;;;;;;;10.36;57.10;165161.53;4951465;29;20059;-66
2022/02/24 09:20:07;;;;;;;1999.90;999.90;;;;;;;10.80;56.82;165279.97;4945555;28;20165;-68
2022/02/24 09:22:35;;;;;;;1999.90;999.90;;;;;;;10.90;55.75;165307.53;4945607;28;20114;-67
2022/02/24 09:25:03;;;;;;;1999.90;999.90;;;;;;;10.87;55.61;165297.91;4947310;28;20397;-68
2022/02/24 09:27:29;;;;;;;1999.90;999.90;;;;;;;10.15;57.27;165105.03;4949531;28;20055;-67
2022/02/24 09:29:57;;;;;;;1999.90;999.90;;;;;;;10.96;56.75;165321.34;4946487;28;20445;-67
2022/02/24 09:32:26;;;;;;;1999.90;999.90;;;;;;;10.66;53.43;165241.41;4944685;28;20338;-67
2022/02/24 09:34:53;;;;;;;1999.90;999.90;;;;;;;10.89;54.76;165304.75;4945843;28;20051;-67
2022/02/24 09:37:19;;;;;;;1999.90;999.90;;;;;;;11.76;53.57;165537.66;4948829;28;20059;-67
2022/02/24 09:39:46;;;;;;;1999.90;999.90;;;;;;;11.83;52.03;165554.19;4961401;28;20157;-68
2022/02/24 09:42:13;;;;;;;1999.90;999.90;;;;;;;12.15;50.63;165641.06;4950105;28;20051;-67
2022/02/24 09:44:40;;;;;;;1999.90;999.90;;;;;;;12.09;50.35;165624.53;4948120;28;20086;-68
2022/02/24 09:47:09;;;;;;;1999.90;999.90;;;;;;;12.13;49.15;165635.53;4954179;28;20345;-67
2022/02/24 09:49:36;;;;;;;1999.90;999.90;;;;;;;11.62;49.34;165500.41;4951270;28;20396;-67
2022/02/24 09:52:03;;;;;;;1999.90;999.90;;;;;;;11.31;51.47;165416.34;4948704;28;20050;-67
2022/02/24 09:54:30;;;;;;;1999.90;999.90;;;;;;;11.74;49.69;165530.75;4948042;28;20056;-68
2022/02/24 09:56:57;;;;;;;1999.90;999.90;;;;;;;11.81;50.09;165550.03;4952745;28;20051;-67
2022/02/24 09:59:24;;;;;;;1999.90;999.90;;;;;;;12.00;50.33;165599.69;4951255;28;20047;-68
2022/02/24 10:01:51;;;;;;;1999.90;999.90;;;;;;;12.31;49.47;165683.78;4948930;28;20059;-68
2022/02/24 10:04:18;;;;;;;1999.90;999.90;;;;;;;12.07;50.04;165620.41;4947812;28;20047;-67
2022/02/24 10:06:47;;;;;;;1999.90;999.90;;;;;;;12.45;48.48;165721.03;4951661;28;20051;-68
2022/02/24 10:09:29;;;;;;;1999.90;999.90;;;;;;;12.61;49.08;165763.75;4952413;29;20083;-67
2022/02/24 10:12:10;;;;;;;1999.90;999.90;;;;;;;12.86;48.63;165831.31;4949630;28;20086;-68
2022/02/24 10:14:38;;;;;;;1999.90;999.90;;;;;;;12.98;46.90;165864.47;4948175;28;20055;-67
2022/02/24 10:17:07;;;;;;;1999.90;999.90;;;;;;;12.26;48.78;165671.38;4948546;28;20066;-68
2022/02/24 10:19:43;;;;;;;1999.90;999.90;;;;;;;12.16;49.03;165643.81;4952566;28;20460;-68
2022/02/24 10:22:20;;;;;;;1999.90;999.90;;;;;;;11.35;49.02;165426.03;4950704;29;20059;-68
2022/02/24 10:25:11;;;;;;;1999.90;999.90;;;;;;;11.78;50.77;165541.78;4947593;28;20097;-68
2022/02/24 10:27:42;;;;;;;1999.90;999.90;;;;;;;11.87;49.22;165566.56;4947086;28;20062;-68
2022/02/24 10:30:19;;;;;;;1999.90;999.90;;;;;;;12.20;48.66;165653.47;4947803;28;20109;-68
2022/02/24 10:32:52;;;;;;;1999.90;999.90;;;;;;;11.71;50.34;165523.84;4948715;28;20051;-67
2022/02/24 10:35:40;;;;;;;1999.90;999.90;;;;;;;11.79;49.75;165544.53;4951313;28;20491;-68
2022/02/24 10:38:09;;;;;;;1999.90;999.90;;;;;;;11.14;51.49;165370.91;4950799;29;20087;-68
2022/02/24 10:40:41;;;;;;;1999.90;999.90;;;;;;;11.80;49.68;165547.28;4946856;28;20055;-67
2022/02/24 10:43:15;;;;;;;1999.90;999.90;;;;;;;11.63;49.31;165501.81;4963687;28;20075;-68
2022/02/24 10:45:44;;;;;;;1999.90;999.90;;;;;;;11.74;49.78;165530.75;4950671;28;20338;-67
2022/02/24 10:48:11;;;;;;;1999.90;999.90;;;;;;;12.38;48.66;165703.09;4952452;29;20353;-68
2022/02/24 10:50:45;;;;;;;1999.90;999.90;;;;;;;12.32;48.02;165687.91;4947455;28;20047;-67
2022/02/24 10:53:17;;;;;;;1999.90;999.90;;;;;;;13.08;47.43;165889.28;4946599;28;20051;-68